createdAt,value
2022-09-15T00:01:44.947Z,57.20
2022-09-15T00:04:15.905Z,57.10
2022-09-15T00:06:46.372Z,57.30
2022-09-15T00:09:15.839Z,57.00
2022-09-15T00:11:44.243Z,57.10
2022-09-15T00:14:18.008Z,57.30
2022-09-15T00:16:53.033Z,56.90
2022-09-15T00:19:23.031Z,57.10
2022-09-15T00:21:52.241Z,57.20
2022-09-15T00:24:28.425Z,57.20
2022-09-15T00:26:57.641Z,57.40
2022-09-15T00:29:31.214Z,57.50
2022-09-15T00:32:03.719Z,57.60
2022-09-15T00:34:35.486Z,58.10
2022-09-15T00:37:07.288Z,58.20
2022-09-15T00:39:40.799Z,58.20
2022-09-15T00:42:14.987Z,57.80
2022-09-15T00:44:53.853Z,57.80
2022-09-15T00:47:34.479Z,57.80
2022-09-15T00:50:13.278Z,58.10
2022-09-15T00:52:47.659Z,58.00
2022-09-15T00:55:22.313Z,58.20
2022-09-15T00:57:55.674Z,58.30
2022-09-15T01:00:29.524Z,57.90
2022-09-15T01:03:05.614Z,58.00
2022-09-15T01:05:43.851Z,58.00
2022-09-15T01:08:20.253Z,57.70
2022-09-15T01:10:53.076Z,57.60
2022-09-15T01:13:22.478Z,57.30
2022-09-15T01:16:08.857Z,57.30
2022-09-15T01:18:49.081Z,57.80
2022-09-15T01:21:43.765Z,57.20
2022-09-15T01:24:41.178Z,57.30
2022-09-15T01:27:41.720Z,57.40
2022-09-15T01:30:15.976Z,57.30
2022-09-15T01:33:05.665Z,57.40
2022-09-15T01:35:53.195Z,57.20
2022-09-15T01:38:42.265Z,57.20
2022-09-15T01:41:19.858Z,57.30
2022-09-15T01:44:11.210Z,57.40
2022-09-15T01:47:04.038Z,57.10
2022-09-15T01:49:56.220Z,57.40
2022-09-15T01:52:49.137Z,57.50
2022-09-15T01:55:41.323Z,57.70
2022-09-15T01:58:10.331Z,57.90
2022-09-15T02:00:46.513Z,57.80
2022-09-15T02:03:44.242Z,57.60
2022-09-15T02:06:36.710Z,57.90
2022-09-15T02:09:12.698Z,57.80
2022-09-15T02:11:52.403Z,57.90
2022-09-15T02:14:31.421Z,57.80
2022-09-15T02:17:01.100Z,58.30
2022-09-15T02:19:34.450Z,58.10
2022-09-15T02:22:11.120Z,58.00
2022-09-15T02:24:45.515Z,58.00
2022-09-15T02:27:21.980Z,58.10
2022-09-15T02:29:53.182Z,58.40
2022-09-15T02:32:25.124Z,58.30
2022-09-15T02:34:58.497Z,57.70
2022-09-15T02:37:29.437Z,58.30
2022-09-15T02:39:59.955Z,57.70
2022-09-15T02:42:31.935Z,57.90
2022-09-15T02:45:03.180Z,57.80
2022-09-15T02:47:33.988Z,57.90
2022-09-15T02:50:04.251Z,57.70
2022-09-15T02:52:33.820Z,57.50
2022-09-15T02:55:02.668Z,57.90
2022-09-15T02:57:31.783Z,58.00
2022-09-15T03:00:17.544Z,57.70
2022-09-15T03:02:50.199Z,57.30
2022-09-15T03:05:22.396Z,57.20
2022-09-15T03:07:51.147Z,57.10
2022-09-15T03:10:20.748Z,57.60
2022-09-15T03:12:51.793Z,57.50
2022-09-15T03:15:22.377Z,57.70
2022-09-15T03:17:51.392Z,58.10
2022-09-15T03:20:23.481Z,58.30
2022-09-15T03:22:52.186Z,57.70
2022-09-15T03:25:21.204Z,57.50
2022-09-15T03:27:50.159Z,57.60
2022-09-15T03:30:18.888Z,57.50
2022-09-15T03:32:47.399Z,57.60
2022-09-15T03:35:15.751Z,57.40
2022-09-15T03:37:45.806Z,58.10
2022-09-15T03:40:14.489Z,57.90
2022-09-15T03:42:42.851Z,58.30
2022-09-15T03:45:11.488Z,58.20
2022-09-15T03:47:39.801Z,58.20
2022-09-15T03:50:08.598Z,58.20
2022-09-15T03:52:40.403Z,58.30
2022-09-15T03:55:11.089Z,57.80
2022-09-15T03:57:48.989Z,57.60
2022-09-15T04:00:17.581Z,57.30
2022-09-15T04:02:45.844Z,57.60
2022-09-15T04:05:14.380Z,57.80
2022-09-15T04:07:42.821Z,57.70
2022-09-15T04:10:13.488Z,57.50
2022-09-15T04:12:42.072Z,57.50
2022-09-15T04:15:11.456Z,57.60
2022-09-15T04:17:41.096Z,57.40
2022-09-15T04:20:10.881Z,57.60
2022-09-15T04:22:39.708Z,57.60
2022-09-15T04:25:09.968Z,57.80
2022-09-15T04:27:39.827Z,57.90
2022-09-15T04:30:10.002Z,58.20
2022-09-15T04:32:38.431Z,57.40
2022-09-15T04:35:07.433Z,57.50
2022-09-15T04:37:38.436Z,57.50
2022-09-15T04:40:08.253Z,57.40
2022-09-15T04:42:37.046Z,57.10
2022-09-15T04:45:08.226Z,57.00
2022-09-15T04:47:36.519Z,57.30
2022-09-15T04:50:05.402Z,57.00
2022-09-15T04:52:33.712Z,57.10
2022-09-15T04:55:02.595Z,57.40
2022-09-15T04:57:31.203Z,57.70
2022-09-15T05:00:00.562Z,57.20
2022-09-15T05:02:32.161Z,57.40
2022-09-15T05:05:02.341Z,57.30
2022-09-15T05:07:31.312Z,57.10
2022-09-15T05:09:59.964Z,56.90
2022-09-15T05:12:28.890Z,57.10
2022-09-15T05:14:57.560Z,57.20
2022-09-15T05:17:26.931Z,57.20
2022-09-15T05:19:56.927Z,57.10
2022-09-15T05:22:25.354Z,57.10
2022-09-15T05:24:54.166Z,57.10
2022-09-15T05:27:22.419Z,57.00
2022-09-15T05:30:00.335Z,56.90
2022-09-15T05:32:39.109Z,56.70
2022-09-15T05:35:09.107Z,57.00
2022-09-15T05:37:38.266Z,56.90
2022-09-15T05:40:08.926Z,57.00
2022-09-15T05:42:37.897Z,57.00
2022-09-15T05:45:06.990Z,56.90
2022-09-15T05:47:35.282Z,57.20
2022-09-15T05:50:03.643Z,57.00
2022-09-15T05:52:33.666Z,56.80
2022-09-15T05:55:01.976Z,56.60
2022-09-15T05:57:30.484Z,57.00
2022-09-15T05:59:58.962Z,56.70
2022-09-15T06:02:27.290Z,56.90
2022-09-15T06:04:55.499Z,56.90
2022-09-15T06:07:24.603Z,57.30
2022-09-15T06:09:54.293Z,57.00
2022-09-15T06:12:23.397Z,56.90
2022-09-15T06:15:12.543Z,57.30
2022-09-15T06:17:41.000Z,57.30
2022-09-15T06:20:10.099Z,57.20
2022-09-15T06:22:38.750Z,57.10
2022-09-15T06:25:10.534Z,56.70
2022-09-15T06:27:39.849Z,57.20
2022-09-15T06:30:09.629Z,56.90
2022-09-15T06:32:39.900Z,56.80
2022-09-15T06:35:08.706Z,56.50
2022-09-15T06:37:41.184Z,56.20
2022-09-15T06:40:12.621Z,56.60
2022-09-15T06:42:41.495Z,56.40
2022-09-15T06:45:10.232Z,56.60
2022-09-15T06:47:39.070Z,56.80
2022-09-15T06:50:08.335Z,56.60
2022-09-15T06:52:37.407Z,56.50
2022-09-15T06:55:06.364Z,56.40
2022-09-15T06:57:36.381Z,56.40
2022-09-15T07:00:05.641Z,56.50
2022-09-15T07:02:34.351Z,56.10
2022-09-15T07:05:04.162Z,56.20
2022-09-15T07:07:33.033Z,56.20
2022-09-15T07:10:02.436Z,56.00
2022-09-15T07:12:32.601Z,56.00
2022-09-15T07:15:02.680Z,55.80
2022-09-15T07:17:31.741Z,56.00
2022-09-15T07:20:00.500Z,55.60
2022-09-15T07:22:29.108Z,55.50
2022-09-15T07:24:57.540Z,55.80
2022-09-15T07:27:31.715Z,55.80
2022-09-15T07:30:03.803Z,55.70
2022-09-15T07:32:32.237Z,55.80
2022-09-15T07:35:02.218Z,56.30
2022-09-15T07:37:30.641Z,55.30
2022-09-15T07:39:59.045Z,55.40
2022-09-15T07:42:28.639Z,55.30
2022-09-15T07:44:59.912Z,55.20
2022-09-15T07:47:29.643Z,55.20
2022-09-15T07:50:00.653Z,55.10
2022-09-15T07:52:28.887Z,55.30
2022-09-15T07:54:58.493Z,55.00
2022-09-15T07:57:28.045Z,53.70
2022-09-15T07:59:56.743Z,53.40
2022-09-15T08:02:25.035Z,53.60
2022-09-15T08:04:56.691Z,53.60
2022-09-15T08:07:25.552Z,53.30
2022-09-15T08:09:54.321Z,53.40
2022-09-15T08:12:22.484Z,54.40
2022-09-15T08:14:50.848Z,54.60
2022-09-15T08:17:19.919Z,53.10
2022-09-15T08:19:51.829Z,54.70
2022-09-15T08:22:21.442Z,54.40
2022-09-15T08:24:50.612Z,54.10
2022-09-15T08:27:19.425Z,54.20
2022-09-15T08:29:48.254Z,53.90
2022-09-15T08:32:16.531Z,54.30
2022-09-15T08:34:48.568Z,54.00
2022-09-15T08:37:17.423Z,54.50
2022-09-15T08:39:47.830Z,53.90
2022-09-15T08:42:19.092Z,53.60
2022-09-15T08:44:55.574Z,53.90
2022-09-15T08:47:29.476Z,54.10
2022-09-15T08:50:03.753Z,54.00
2022-09-15T08:52:36.516Z,53.80
2022-09-15T08:55:13.661Z,53.90
2022-09-15T08:57:49.826Z,53.60
2022-09-15T09:00:18.983Z,53.80
2022-09-15T09:03:21.943Z,53.80
2022-09-15T09:05:59.461Z,53.50
2022-09-15T09:09:03.270Z,53.30
2022-09-15T09:11:43.189Z,53.10
2022-09-15T09:14:24.457Z,52.10
2022-09-15T09:17:21.070Z,51.50
2022-09-15T09:20:04.817Z,52.40
2022-09-15T09:22:36.788Z,52.50
2022-09-15T09:25:25.843Z,51.20
2022-09-15T09:28:00.085Z,51.40
2022-09-15T09:30:30.289Z,51.20
2022-09-15T09:33:15.490Z,51.20
2022-09-15T09:35:51.690Z,51.20
2022-09-15T09:38:23.647Z,51.00
2022-09-15T09:41:47.534Z,50.90
2022-09-15T09:44:17.748Z,50.40
2022-09-15T09:46:46.774Z,49.90
2022-09-15T09:49:21.001Z,50.10
2022-09-15T09:51:53.962Z,49.00
2022-09-15T09:54:27.521Z,49.70
2022-09-15T09:56:58.044Z,49.50
2022-09-15T09:59:42.422Z,48.80
2022-09-15T10:02:17.805Z,48.40
2022-09-15T10:04:47.813Z,48.60
2022-09-15T10:07:18.826Z,48.20
2022-09-15T10:09:54.171Z,47.80
2022-09-15T10:12:26.455Z,47.30
2022-09-15T10:14:58.218Z,47.20
2022-09-15T10:17:38.648Z,47.40
2022-09-15T10:20:23.342Z,47.80
2022-09-15T10:22:53.288Z,47.70
2022-09-15T10:25:55.048Z,46.80
2022-09-15T10:28:38.833Z,45.40
2022-09-15T10:31:11.347Z,45.10
2022-09-15T10:33:46.468Z,44.40
2022-09-15T10:36:18.646Z,44.70
2022-09-15T10:38:49.271Z,44.30
2022-09-15T10:41:24.514Z,44.50
2022-09-15T10:44:09.027Z,43.20
2022-09-15T10:46:51.598Z,42.70
2022-09-15T10:49:45.235Z,43.00
2022-09-15T10:52:22.321Z,43.60
2022-09-15T10:55:09.222Z,43.80
2022-09-15T10:57:55.083Z,43.40
2022-09-15T11:00:25.157Z,44.00
2022-09-15T11:52:56.306Z,53.60
2022-09-15T11:55:31.417Z,43.10
2022-09-15T11:58:16.350Z,43.30
2022-09-15T12:00:53.839Z,42.80
2022-09-15T12:03:30.372Z,42.50
2022-09-15T12:06:05.053Z,42.00
2022-09-15T12:08:40.738Z,42.80
2022-09-15T12:11:13.939Z,42.50
2022-09-15T12:13:42.727Z,42.10
2022-09-15T12:16:12.736Z,42.00
2022-09-15T12:18:48.284Z,42.90
2022-09-15T12:21:20.902Z,42.00
2022-09-15T12:23:58.045Z,41.60
2022-09-15T12:26:29.071Z,41.90
2022-09-15T12:29:02.430Z,41.80
2022-09-15T12:31:36.617Z,42.20
2022-09-15T12:34:23.134Z,41.70
2022-09-15T12:36:54.506Z,41.50
2022-09-15T12:39:43.033Z,41.70
2022-09-15T12:42:20.492Z,42.20
2022-09-15T12:44:54.246Z,40.20
2022-09-15T12:47:28.662Z,41.60
2022-09-15T12:50:03.471Z,41.80
2022-09-15T12:52:33.048Z,41.50
2022-09-15T12:55:04.782Z,41.50
2022-09-15T12:57:38.050Z,41.40
2022-09-15T13:00:50.014Z,41.70
2022-09-15T13:03:50.527Z,41.00
2022-09-15T13:06:22.730Z,41.60
2022-09-15T13:09:16.554Z,41.20
2022-09-15T13:11:48.781Z,41.60
2022-09-15T13:14:26.042Z,40.90
2022-09-15T13:16:59.642Z,40.90
2022-09-15T13:19:41.206Z,40.60
2022-09-15T13:22:22.842Z,40.60
2022-09-15T13:24:59.303Z,40.60
2022-09-15T13:27:35.719Z,40.90
2022-09-15T13:30:38.173Z,40.40
2022-09-15T13:33:18.785Z,40.10
2022-09-15T13:36:06.849Z,40.60
2022-09-15T13:38:57.527Z,40.50
2022-09-15T13:42:01.556Z,41.00
2022-09-15T13:44:57.657Z,40.70
2022-09-15T13:47:51.310Z,41.10
2022-09-15T13:50:25.012Z,41.10
2022-09-15T13:53:04.207Z,41.10
2022-09-15T13:55:37.763Z,41.30
2022-09-15T14:01:02.377Z,41.00
2022-09-15T14:03:37.999Z,40.90
2022-09-15T14:06:13.494Z,41.00
2022-09-15T14:08:43.886Z,41.20
2022-09-15T14:11:16.728Z,41.10
2022-09-15T14:13:48.093Z,40.50
2022-09-15T14:16:29.119Z,40.60
2022-09-15T14:19:00.623Z,41.00
2022-09-15T14:21:31.165Z,41.20
2022-09-15T14:24:06.179Z,41.00
2022-09-15T14:26:36.989Z,40.60
2022-09-15T14:29:06.959Z,41.00
2022-09-15T14:31:38.543Z,40.30
2022-09-15T14:34:15.682Z,40.50
2022-09-15T14:36:44.206Z,40.70
2022-09-15T14:39:22.735Z,40.70
2022-09-15T14:41:52.778Z,40.90
2022-09-15T14:47:21.760Z,40.30
2022-09-15T14:49:50.314Z,40.30
2022-09-15T14:52:29.625Z,39.70
2022-09-15T14:55:02.730Z,40.10
2022-09-15T14:57:37.371Z,39.10
2022-09-15T15:00:10.554Z,39.80
2022-09-15T15:02:51.265Z,39.20
2022-09-15T15:05:25.648Z,39.40
2022-09-15T15:07:56.300Z,39.70
2022-09-15T15:10:26.855Z,39.20
2022-09-15T15:13:00.040Z,38.90
2022-09-15T15:15:30.141Z,38.70
2022-09-15T15:17:58.695Z,38.90
2022-09-15T15:20:30.490Z,39.00
2022-09-15T15:23:12.853Z,39.10
2022-09-15T15:25:42.515Z,39.50
2022-09-15T15:28:31.534Z,39.40
2022-09-15T15:31:17.783Z,39.10
2022-09-15T15:33:50.398Z,38.20
2022-09-15T15:36:23.903Z,38.40
2022-09-15T15:38:54.811Z,38.40
2022-09-15T15:41:27.237Z,38.00
2022-09-15T15:43:59.393Z,37.50
2022-09-15T15:46:48.677Z,37.00
2022-09-15T15:49:18.780Z,37.20
2022-09-15T15:51:47.404Z,37.40
2022-09-15T15:54:16.025Z,37.40
2022-09-15T15:56:44.768Z,37.40
2022-09-15T15:59:15.735Z,37.40
2022-09-15T16:01:44.372Z,37.30
2022-09-15T16:04:14.106Z,37.60
2022-09-15T16:06:45.442Z,37.00
2022-09-15T16:09:15.741Z,37.10
2022-09-15T16:11:45.383Z,37.40
2022-09-15T16:14:14.966Z,37.30
2022-09-15T16:16:43.498Z,37.30
2022-09-15T16:19:12.920Z,37.10
2022-09-15T16:21:43.611Z,37.00
2022-09-15T16:24:15.697Z,36.60
2022-09-15T16:26:44.676Z,36.60
2022-09-15T16:29:14.736Z,38.20
2022-09-15T16:31:43.563Z,38.10
2022-09-15T16:34:18.061Z,37.70
2022-09-15T16:36:46.716Z,37.90
2022-09-15T16:39:15.448Z,38.50
2022-09-15T16:41:43.560Z,38.80
2022-09-15T16:44:19.442Z,38.70
2022-09-15T16:46:48.588Z,38.80
2022-09-15T16:49:16.781Z,39.10
2022-09-15T16:51:45.119Z,38.80
2022-09-15T16:54:16.689Z,38.00
2022-09-15T16:56:46.231Z,38.10
2022-09-15T16:59:16.229Z,38.90
2022-09-15T17:01:45.998Z,39.00
2022-09-15T17:04:19.241Z,39.00
2022-09-15T17:06:47.710Z,38.60
2022-09-15T17:09:16.275Z,38.70
2022-09-15T17:11:46.241Z,39.30
2022-09-15T17:14:17.819Z,39.70
2022-09-15T17:16:47.562Z,40.10
2022-09-15T17:19:15.850Z,40.00
2022-09-15T17:21:44.212Z,40.00
2022-09-15T17:24:12.819Z,40.30
2022-09-15T17:26:41.498Z,40.50
2022-09-15T17:29:10.279Z,40.50
2022-09-15T17:31:39.922Z,40.60
2022-09-15T17:34:13.904Z,40.30
2022-09-15T17:36:42.290Z,41.00
2022-09-15T17:39:11.455Z,41.00
2022-09-15T17:41:39.814Z,40.80
2022-09-15T17:44:10.307Z,40.60
2022-09-15T17:46:39.845Z,41.00
2022-09-15T17:49:09.974Z,41.00
2022-09-15T17:51:38.345Z,41.10
2022-09-15T17:54:07.585Z,41.10
2022-09-15T17:56:35.754Z,41.10
2022-09-15T17:59:04.194Z,41.30
2022-09-15T18:01:33.623Z,40.70
2022-09-15T18:04:04.124Z,40.70
2022-09-15T18:06:35.731Z,41.10
2022-09-15T18:09:04.523Z,41.00
2022-09-15T18:11:33.203Z,41.20
2022-09-15T18:14:01.686Z,41.20
2022-09-15T18:16:32.619Z,41.20
2022-09-15T18:19:00.967Z,40.90
2022-09-15T18:21:31.637Z,41.00
2022-09-15T18:23:59.743Z,41.30
2022-09-15T18:26:28.103Z,41.00
2022-09-15T18:28:57.622Z,41.20
2022-09-15T18:31:26.627Z,41.20
2022-09-15T18:33:54.915Z,41.30
2022-09-15T18:36:23.463Z,41.40
2022-09-15T18:38:53.300Z,41.00
2022-09-15T18:41:22.877Z,40.90
2022-09-15T18:43:51.324Z,41.00
2022-09-15T18:46:21.254Z,40.80
2022-09-15T18:48:50.678Z,40.60
2022-09-15T18:51:29.103Z,40.80
2022-09-15T18:54:05.034Z,40.80
2022-09-15T18:56:33.327Z,40.90
2022-09-15T18:59:02.200Z,41.10
2022-09-15T19:01:30.606Z,41.10
2022-09-15T19:03:58.998Z,41.10
2022-09-15T19:06:27.786Z,41.00
2022-09-15T19:08:56.817Z,41.00
2022-09-15T19:11:29.401Z,40.60
2022-09-15T19:13:58.569Z,40.80
2022-09-15T19:16:46.886Z,41.00
2022-09-15T19:19:17.557Z,41.00
2022-09-15T19:21:45.996Z,40.70
2022-09-15T19:24:15.644Z,40.90
2022-09-15T19:26:47.038Z,41.50
2022-09-15T19:29:15.573Z,40.80
2022-09-15T19:31:44.171Z,41.10
2022-09-15T19:34:12.576Z,40.90
2022-09-15T19:36:40.733Z,41.20
2022-09-15T19:39:09.139Z,40.60
2022-09-15T19:41:37.433Z,40.90
2022-09-15T19:44:10.676Z,41.20
2022-09-15T19:46:39.329Z,40.90
2022-09-15T19:49:07.975Z,40.90
2022-09-15T19:51:37.561Z,41.10
2022-09-15T19:54:07.087Z,41.20
2022-09-15T19:56:36.252Z,41.50
2022-09-15T19:59:07.972Z,41.40
2022-09-15T20:01:36.190Z,41.20
2022-09-15T20:04:04.514Z,41.30
2022-09-15T20:06:33.557Z,41.70
2022-09-15T20:09:02.236Z,41.80
2022-09-15T20:11:31.275Z,41.70
2022-09-15T20:13:59.875Z,41.60
2022-09-15T20:16:30.184Z,41.50
2022-09-15T20:18:58.805Z,41.40
2022-09-15T20:24:18.479Z,41.70
2022-09-15T20:26:46.743Z,41.70
2022-09-15T20:29:15.468Z,41.90
2022-09-15T20:31:45.492Z,41.60
2022-09-15T20:34:13.940Z,41.90
2022-09-15T20:36:43.723Z,42.10
2022-09-15T20:39:14.505Z,42.00
2022-09-15T20:41:45.156Z,41.90
2022-09-15T20:44:14.231Z,42.20
2022-09-15T20:46:42.920Z,42.20
2022-09-15T20:49:13.121Z,41.60
2022-09-15T20:51:42.281Z,41.90
2022-09-15T20:54:11.319Z,41.40
2022-09-15T20:56:39.853Z,41.80
2022-09-15T20:59:10.325Z,41.90
2022-09-15T21:01:40.140Z,41.30
2022-09-15T21:04:09.684Z,41.60
2022-09-15T21:06:39.912Z,41.90
2022-09-15T21:09:08.755Z,41.70
2022-09-15T21:11:37.722Z,41.70
2022-09-15T21:14:06.027Z,41.90
2022-09-15T21:16:35.087Z,41.50
2022-09-15T21:19:03.805Z,41.60
2022-09-15T21:21:33.732Z,41.90
2022-09-15T21:24:05.422Z,42.00
2022-09-15T21:26:35.331Z,42.10
2022-09-15T21:29:04.169Z,42.10
2022-09-15T21:31:33.719Z,41.70
2022-09-15T21:34:01.967Z,42.00
2022-09-15T21:36:31.481Z,42.00
2022-09-15T21:39:02.669Z,42.00
2022-09-15T21:41:32.223Z,42.00
2022-09-15T21:44:01.062Z,42.10
2022-09-15T21:46:31.365Z,42.10
2022-09-15T21:49:00.873Z,42.10
2022-09-15T21:51:31.014Z,42.10
2022-09-15T21:54:00.373Z,42.20
2022-09-15T21:56:30.682Z,42.50
2022-09-15T21:59:00.179Z,42.20
2022-09-15T22:01:30.498Z,42.50
2022-09-15T22:04:00.342Z,42.80
2022-09-15T22:06:31.949Z,42.40
2022-09-15T22:09:01.066Z,42.20
2022-09-15T22:11:29.534Z,42.50
2022-09-15T22:13:57.997Z,42.40
2022-09-15T22:16:27.738Z,42.40
2022-09-15T22:18:56.541Z,42.50
2022-09-15T22:21:27.547Z,42.90
2022-09-15T22:23:58.320Z,42.60
2022-09-15T22:26:28.295Z,42.80
2022-09-15T22:28:57.894Z,42.80
2022-09-15T22:31:28.782Z,42.60
2022-09-15T22:33:57.671Z,42.70
2022-09-15T22:36:29.714Z,42.60
2022-09-15T22:39:04.030Z,42.80
2022-09-15T22:41:34.035Z,42.80
2022-09-15T22:44:02.657Z,42.90
2022-09-15T22:46:32.657Z,42.80
2022-09-15T22:49:01.094Z,42.70
2022-09-15T22:51:29.866Z,43.10
2022-09-15T22:53:58.525Z,42.50
2022-09-15T22:56:27.319Z,43.20
2022-09-15T22:58:56.658Z,43.10
2022-09-15T23:01:27.072Z,43.10
2022-09-15T23:03:58.723Z,43.00
2022-09-15T23:06:31.428Z,43.30
2022-09-15T23:09:01.349Z,43.20
2022-09-15T23:11:32.534Z,42.90
2022-09-15T23:14:01.482Z,42.90
2022-09-15T23:16:31.605Z,43.40
2022-09-15T23:19:02.581Z,43.30
2022-09-15T23:21:30.922Z,43.40
2022-09-15T23:23:59.243Z,43.20
2022-09-15T23:26:28.441Z,43.30
2022-09-15T23:28:56.827Z,43.20
2022-09-15T23:31:25.149Z,43.30
2022-09-15T23:33:53.817Z,43.20
2022-09-15T23:36:24.601Z,43.20
2022-09-15T23:38:53.023Z,43.20
2022-09-15T23:41:21.847Z,43.70
2022-09-15T23:43:51.087Z,43.40
2022-09-15T23:46:19.507Z,43.70
2022-09-15T23:48:47.744Z,43.80
2022-09-15T23:51:16.034Z,43.10
2022-09-15T23:53:47.015Z,43.40
2022-09-15T23:56:15.443Z,43.80
2022-09-15T23:58:44.055Z,43.90
